Time;durP1;ratioP1;P1;durP2;ratioP2;P2;SDS_P1;SDS_P2;PMS_P1;PMS_P2;Temp;Humidity;BMP_temperature;BMP_pressure;BME280_temperature;BME280_humidity;BME280_pressure;Samples;Min_cycle;Max_cycle;Signal;HPM_P1;HPM_P2
2024/01/10 00:00:56;;;;;;;28.08;8.27;;;;;;;;;;5084211;28;20327;-61
2024/01/10 00:03:23;;;;;;;13.75;8.70;;;;;;;;;;5084036;28;20227;-61
2024/01/10 00:05:49;;;;;;;18.30;8.68;;;;;;;;;;5083947;28;20084;-60
2024/01/10 00:08:16;;;;;;;18.98;8.27;;;;;;;;;;5083867;28;20373;-60
2024/01/10 00:10:43;;;;;;;17.35;8.43;;;;;;;;;;5083732;28;20189;-60
2024/01/10 00:13:10;;;;;;;21.20;9.05;;;;;;;;;;5084434;28;20086;-60
2024/01/10 00:15:36;;;;;;;21.10;8.38;;;;;;;;;;5083863;28;20020;-60
2024/01/10 00:18:03;;;;;;;17.27;8.07;;;;;;;;;;5084064;28;20033;-60
2024/01/10 00:20:29;;;;;;;20.65;8.20;;;;;;;;;;5083883;28;20312;-60
2024/01/10 00:22:56;;;;;;;18.63;7.85;;;;;;;;;;5082662;28;20029;-60
2024/01/10 00:25:22;;;;;;;17.20;7.88;;;;;;;;;;5083666;28;20084;-60
2024/01/10 00:27:49;;;;;;;21.58;8.32;;;;;;;;;;5083831;28;20247;-59
2024/01/10 00:30:16;;;;;;;18.08;7.53;;;;;;;;;;5083768;28;20036;-60
2024/01/10 00:32:42;;;;;;;25.55;8.13;;;;;;;;;;5083843;28;20020;-60
2024/01/10 00:35:10;;;;;;;57.95;9.88;;;;;;;;;;5083722;28;20111;-60
2024/01/10 00:37:37;;;;;;;34.92;8.38;;;;;;;;;;5083510;28;20243;-60
2024/01/10 00:40:03;;;;;;;52.67;10.30;;;;;;;;;;5082342;28;20115;-60
2024/01/10 00:42:30;;;;;;;42.70;9.88;;;;;;;;;;5082391;28;20037;-60
2024/01/10 00:44:56;;;;;;;64.13;11.27;;;;;;;;;;5082294;28;20024;-58
2024/01/10 00:47:23;;;;;;;61.97;11.05;;;;;;;;;;5083258;28;20036;-60
2024/01/10 00:49:50;;;;;;;54.60;10.70;;;;;;;;;;5086037;28;20024;-58
2024/01/10 00:52:16;;;;;;;51.42;10.75;;;;;;;;;;5087703;28;20371;-60
2024/01/10 00:54:44;;;;;;;38.17;10.10;;;;;;;;;;5087574;28;20077;-61
2024/01/10 00:57:10;;;;;;;35.05;9.93;;;;;;;;;;5087551;28;20090;-61
2024/01/10 00:59:37;;;;;;;32.13;9.95;;;;;;;;;;5087423;28;20020;-59
2024/01/10 01:02:03;;;;;;;31.33;11.48;;;;;;;;;;5087483;28;20028;-59
2024/01/10 01:04:30;;;;;;;32.80;12.60;;;;;;;;;;5087079;28;20028;-59
2024/01/10 01:06:57;;;;;;;19.83;10.45;;;;;;;;;;5087427;28;20097;-58
2024/01/10 01:09:24;;;;;;;63.45;12.63;;;;;;;;;;5087209;28;20333;-59
2024/01/10 01:11:51;;;;;;;84.20;13.10;;;;;;;;;;5087100;28;20312;-58
2024/01/10 01:14:17;;;;;;;39.25;10.18;;;;;;;;;;5087176;28;20339;-59
2024/01/10 01:16:44;;;;;;;23.67;9.45;;;;;;;;;;5087045;28;20020;-60
2024/01/10 01:19:10;;;;;;;28.27;8.90;;;;;;;;;;5086801;28;20016;-60
2024/01/10 01:21:37;;;;;;;32.00;9.15;;;;;;;;;;5086913;28;20083;-60
2024/01/10 01:24:04;;;;;;;22.13;8.52;;;;;;;;;;5085715;28;20016;-60
2024/01/10 01:26:30;;;;;;;18.63;8.00;;;;;;;;;;5086722;28;20043;-59
2024/01/10 01:28:57;;;;;;;16.17;8.20;;;;;;;;;;5086840;28;20039;-59
2024/01/10 01:31:23;;;;;;;15.82;7.90;;;;;;;;;;5086810;28;20263;-59
2024/01/10 01:33:50;;;;;;;14.32;8.07;;;;;;;;;;5086644;28;20212;-60
2024/01/10 01:36:16;;;;;;;13.35;7.68;;;;;;;;;;5086701;28;20009;-59
2024/01/10 01:38:43;;;;;;;13.90;7.95;;;;;;;;;;5085379;28;20044;-58
2024/01/10 01:41:10;;;;;;;12.60;7.75;;;;;;;;;;5086606;28;20025;-58
2024/01/10 01:43:36;;;;;;;16.33;7.80;;;;;;;;;;5087178;28;20032;-59
2024/01/10 01:46:03;;;;;;;14.25;7.43;;;;;;;;;;5086739;28;20320;-60
2024/01/10 01:48:30;;;;;;;15.60;7.70;;;;;;;;;;5086828;28;20052;-60
2024/01/10 01:51:02;;;;;;;12.27;7.90;;;;;;;;;;5086710;28;20035;-63
2024/01/10 01:53:29;;;;;;;11.43;8.05;;;;;;;;;;5086993;28;20304;-60
2024/01/10 01:55:56;;;;;;;14.13;7.82;;;;;;;;;;5086378;28;20028;-60
2024/01/10 01:58:24;;;;;;;54.45;11.30;;;;;;;;;;5086751;28;20033;-59
2024/01/10 02:00:51;;;;;;;16.45;7.72;;;;;;;;;;5101500;28;20307;-58
2024/01/10 02:03:17;;;;;;;17.27;8.25;;;;;;;;;;5101846;28;20024;-54
2024/01/10 02:05:44;;;;;;;13.25;7.68;;;;;;;;;;5088727;28;20331;-52
2024/01/10 02:08:11;;;;;;;13.40;7.78;;;;;;;;;;5088959;28;20211;-60
2024/01/10 02:10:37;;;;;;;11.93;7.70;;;;;;;;;;5084522;28;20178;-61
2024/01/10 02:13:04;;;;;;;13.77;8.15;;;;;;;;;;5085222;28;20024;-57
2024/01/10 02:15:31;;;;;;;13.50;7.28;;;;;;;;;;5085545;28;20312;-57
2024/01/10 02:17:57;;;;;;;13.05;7.68;;;;;;;;;;5083196;28;20029;-59
2024/01/10 02:20:24;;;;;;;22.77;7.82;;;;;;;;;;5085997;28;20082;-55
2024/01/10 02:22:53;;;;;;;13.48;7.40;;;;;;;;;;5086045;28;20029;-56
2024/01/10 02:25:21;;;;;;;14.30;8.32;;;;;;;;;;5085788;28;20368;-55
2024/01/10 02:27:48;;;;;;;15.63;8.10;;;;;;;;;;5086102;28;20028;-55
2024/01/10 02:30:15;;;;;;;11.85;7.88;;;;;;;;;;5085755;28;20016;-54
2024/01/10 02:32:41;;;;;;;12.93;8.05;;;;;;;;;;5085551;28;20021;-55
2024/01/10 02:35:08;;;;;;;12.60;7.70;;;;;;;;;;5084726;28;20088;-57
2024/01/10 02:37:35;;;;;;;13.35;7.53;;;;;;;;;;5085663;28;20247;-57
2024/01/10 02:40:02;;;;;;;13.70;7.47;;;;;;;;;;5085613;28;20024;-58
2024/01/10 02:42:30;;;;;;;12.80;7.28;;;;;;;;;;5085782;28;20087;-58
2024/01/10 02:44:57;;;;;;;10.45;7.63;;;;;;;;;;5085579;28;20024;-59
2024/01/10 02:47:23;;;;;;;10.65;7.03;;;;;;;;;;5085511;28;20304;-58
2024/01/10 02:49:50;;;;;;;13.02;7.75;;;;;;;;;;5085251;28;20027;-58
2024/01/10 02:52:16;;;;;;;12.10;8.00;;;;;;;;;;5085481;28;20025;-60
2024/01/10 02:54:43;;;;;;;98.03;14.70;;;;;;;;;;5089715;28;20020;-62
2024/01/10 02:57:10;;;;;;;34.53;8.82;;;;;;;;;;5081785;28;20039;-54
2024/01/10 02:59:36;;;;;;;15.02;7.85;;;;;;;;;;5081593;28;20032;-61
2024/01/10 03:02:03;;;;;;;17.10;7.88;;;;;;;;;;5086965;28;20030;-56
2024/01/10 03:04:30;;;;;;;13.45;7.53;;;;;;;;;;5087536;28;20089;-52
2024/01/10 03:06:56;;;;;;;13.93;7.43;;;;;;;;;;5080008;28;20039;-53
2024/01/10 03:09:23;;;;;;;16.95;7.85;;;;;;;;;;5083197;28;20024;-53
2024/01/10 03:11:50;;;;;;;10.15;7.57;;;;;;;;;;5082788;28;20116;-56
2024/01/10 03:14:16;;;;;;;12.05;7.97;;;;;;;;;;5080820;28;21252;-56
2024/01/10 03:16:43;;;;;;;10.55;7.80;;;;;;;;;;5084749;28;20084;-56
2024/01/10 03:19:10;;;;;;;11.50;7.88;;;;;;;;;;5083707;28;20016;-52
2024/01/10 03:21:36;;;;;;;9.40;7.80;;;;;;;;;;5084222;28;20021;-51
2024/01/10 03:24:03;;;;;;;9.60;8.05;;;;;;;;;;5081673;28;20036;-54
2024/01/10 03:26:30;;;;;;;10.27;7.10;;;;;;;;;;5081578;28;20076;-56
2024/01/10 03:28:57;;;;;;;10.18;7.53;;;;;;;;;;5079499;28;20024;-52
2024/01/10 03:31:24;;;;;;;8.73;7.68;;;;;;;;;;5082684;28;20021;-51
2024/01/10 03:33:50;;;;;;;9.23;7.25;;;;;;;;;;5082282;28;20020;-55
2024/01/10 03:36:18;;;;;;;10.48;8.13;;;;;;;;;;5079474;28;20017;-59
2024/01/10 03:38:45;;;;;;;9.70;7.80;;;;;;;;;;5080110;28;20055;-53
2024/01/10 03:41:15;;;;;;;9.50;7.13;;;;;;;;;;5078283;28;20055;-56
2024/01/10 03:43:41;;;;;;;9.48;7.38;;;;;;;;;;5080948;28;20103;-52
2024/01/10 03:46:09;;;;;;;8.48;7.32;;;;;;;;;;5084332;28;20079;-58
2024/01/10 03:48:35;;;;;;;9.68;7.20;;;;;;;;;;5084379;28;20038;-55
2024/01/10 03:51:02;;;;;;;12.05;7.20;;;;;;;;;;5082431;28;20327;-50
2024/01/10 03:53:29;;;;;;;12.40;10.05;;;;;;;;;;5084317;28;20028;-55
2024/01/10 03:55:55;;;;;;;24.55;16.23;;;;;;;;;;5082004;28;20062;-57
2024/01/10 03:58:22;;;;;;;27.67;19.30;;;;;;;;;;5083233;28;20028;-60
2024/01/10 04:00:49;;;;;;;25.42;19.17;;;;;;;;;;5084289;28;20020;-53
2024/01/10 04:03:16;;;;;;;26.15;19.45;;;;;;;;;;5082755;28;20052;-51
2024/01/10 04:05:43;;;;;;;24.38;17.90;;;;;;;;;;5084071;28;20027;-52
2024/01/10 04:08:09;;;;;;;27.75;18.45;;;;;;;;;;5084377;28;20035;-57
2024/01/10 04:10:36;;;;;;;25.83;16.00;;;;;;;;;;5081112;28;20086;-54
2024/01/10 04:13:02;;;;;;;18.92;13.00;;;;;;;;;;5084364;28;20087;-54
2024/01/10 04:15:29;;;;;;;15.20;11.63;;;;;;;;;;5083971;28;20021;-58
2024/01/10 04:17:56;;;;;;;18.90;12.02;;;;;;;;;;5084236;28;20032;-54
2024/01/10 04:20:22;;;;;;;17.58;10.50;;;;;;;;;;5081145;28;20025;-55
2024/01/10 04:22:49;;;;;;;13.18;9.23;;;;;;;;;;5080758;28;20024;-54
2024/01/10 04:25:15;;;;;;;13.55;9.20;;;;;;;;;;5077449;28;20055;-55
2024/01/10 04:27:42;;;;;;;13.00;8.40;;;;;;;;;;5072561;28;20028;-60
2024/01/10 04:30:09;;;;;;;12.13;8.48;;;;;;;;;;5073777;28;20020;-54
2024/01/10 04:32:35;;;;;;;13.50;8.50;;;;;;;;;;5075084;28;20070;-54
2024/01/10 04:35:02;;;;;;;10.45;7.68;;;;;;;;;;5082926;28;20017;-57
2024/01/10 04:37:28;;;;;;;9.77;7.80;;;;;;;;;;5081847;28;20036;-55
2024/01/10 04:39:55;;;;;;;10.13;7.85;;;;;;;;;;5073111;28;20088;-57
2024/01/10 04:42:22;;;;;;;12.98;7.57;;;;;;;;;;5083930;28;20074;-50
2024/01/10 04:44:49;;;;;;;12.52;7.75;;;;;;;;;;5080043;28;21385;-58
2024/01/10 04:47:16;;;;;;;10.45;8.10;;;;;;;;;;5072887;28;20033;-55
2024/01/10 04:49:43;;;;;;;11.20;7.80;;;;;;;;;;5098890;28;20016;-54
2024/01/10 04:52:09;;;;;;;10.20;7.60;;;;;;;;;;5102886;28;20024;-53
2024/01/10 04:54:36;;;;;;;10.02;7.53;;;;;;;;;;5087293;28;20020;-55
2024/01/10 04:57:02;;;;;;;11.93;8.10;;;;;;;;;;5083561;28;20032;-54
2024/01/10 04:59:29;;;;;;;8.73;7.55;;;;;;;;;;5083640;28;20024;-57
2024/01/10 05:01:55;;;;;;;10.15;8.10;;;;;;;;;;5083667;28;20100;-55
2024/01/10 05:04:22;;;;;;;13.30;8.65;;;;;;;;;;5083419;28;20021;-54
2024/01/10 05:06:48;;;;;;;12.00;8.02;;;;;;;;;;5083541;28;20032;-54
2024/01/10 05:09:15;;;;;;;10.63;7.78;;;;;;;;;;5083456;28;20017;-56
2024/01/10 05:11:42;;;;;;;10.75;8.10;;;;;;;;;;5071411;28;20025;-58
2024/01/10 05:14:08;;;;;;;9.98;7.95;;;;;;;;;;5063413;28;20016;-53
2024/01/10 05:16:35;;;;;;;11.00;8.18;;;;;;;;;;5063318;28;20098;-51
2024/01/10 05:19:03;;;;;;;10.07;7.95;;;;;;;;;;5063140;28;20040;-53
2024/01/10 05:21:30;;;;;;;9.90;7.97;;;;;;;;;;5063286;28;20079;-52
2024/01/10 05:23:57;;;;;;;12.30;8.48;;;;;;;;;;5063298;28;20017;-58
2024/01/10 05:26:24;;;;;;;10.32;8.52;;;;;;;;;;5062993;28;20088;-55
2024/01/10 05:28:50;;;;;;;12.75;8.43;;;;;;;;;;5063142;28;20017;-55
2024/01/10 05:31:18;;;;;;;12.77;8.90;;;;;;;;;;5063170;28;20016;-57
2024/01/10 05:33:44;;;;;;;10.75;8.55;;;;;;;;;;5063069;28;20013;-58
2024/01/10 05:36:11;;;;;;;11.45;9.07;;;;;;;;;;5066164;28;20029;-54
2024/01/10 05:38:38;;;;;;;13.20;9.02;;;;;;;;;;5066801;28;20052;-54
2024/01/10 05:41:05;;;;;;;10.77;9.20;;;;;;;;;;5066722;28;20316;-51
2024/01/10 05:43:31;;;;;;;11.05;9.10;;;;;;;;;;5068807;28;20048;-55
2024/01/10 05:45:59;;;;;;;12.50;9.60;;;;;;;;;;5086614;28;20087;-54
2024/01/10 05:48:25;;;;;;;12.70;9.75;;;;;;;;;;5086968;28;20040;-53
2024/01/10 05:50:52;;;;;;;10.23;9.13;;;;;;;;;;5086586;28;20207;-56
2024/01/10 05:53:18;;;;;;;14.65;9.80;;;;;;;;;;5086999;28;20016;-55
2024/01/10 05:55:45;;;;;;;10.68;8.80;;;;;;;;;;5086585;28;20025;-57
2024/01/10 05:58:12;;;;;;;12.30;9.02;;;;;;;;;;5086757;28;20020;-54
2024/01/10 06:00:38;;;;;;;10.35;8.95;;;;;;;;;;5084933;28;20028;-55
2024/01/10 06:03:05;;;;;;;12.23;9.27;;;;;;;;;;5086297;28;20054;-55
2024/01/10 06:05:32;;;;;;;11.73;9.38;;;;;;;;;;5086488;28;20020;-55
2024/01/10 06:07:58;;;;;;;10.70;9.30;;;;;;;;;;5086528;28;20099;-54
2024/01/10 06:10:25;;;;;;;11.80;9.82;;;;;;;;;;5086304;28;20024;-54
2024/01/10 06:12:52;;;;;;;11.15;8.88;;;;;;;;;;5086368;28;20070;-59
2024/01/10 06:15:18;;;;;;;15.40;9.43;;;;;;;;;;5086255;28;20021;-55
2024/01/10 06:17:45;;;;;;;11.68;9.15;;;;;;;;;;5086024;28;20322;-56
2024/01/10 06:20:11;;;;;;;10.20;9.00;;;;;;;;;;5086229;28;20044;-56
2024/01/10 06:22:38;;;;;;;11.05;8.82;;;;;;;;;;5086233;28;20028;-54
2024/01/10 06:25:05;;;;;;;11.80;8.95;;;;;;;;;;5086046;28;20028;-52
2024/01/10 06:27:31;;;;;;;11.55;9.00;;;;;;;;;;5085871;28;20029;-54
2024/01/10 06:29:58;;;;;;;12.88;9.10;;;;;;;;;;5086220;28;20024;-53
2024/01/10 06:32:25;;;;;;;10.95;8.05;;;;;;;;;;5086183;28;20087;-55
2024/01/10 06:34:52;;;;;;;11.90;8.35;;;;;;;;;;5085697;28;20057;-54
2024/01/10 06:37:19;;;;;;;11.07;8.18;;;;;;;;;;5085661;28;20064;-57
2024/01/10 06:40:05;;;;;;;9.43;7.93;;;;;;;;;;5085708;28;20035;-53
2024/01/10 06:42:32;;;;;;;10.18;7.97;;;;;;;;;;5086040;28;20035;-57
2024/01/10 06:44:58;;;;;;;9.45;8.18;;;;;;;;;;5085533;28;20073;-59
2024/01/10 06:47:25;;;;;;;9.50;8.05;;;;;;;;;;5085757;28;20039;-57
2024/01/10 06:49:52;;;;;;;10.18;7.97;;;;;;;;;;5085525;28;20316;-56
2024/01/10 06:52:18;;;;;;;11.25;8.15;;;;;;;;;;5085661;28;20083;-58
2024/01/10 06:54:45;;;;;;;11.90;8.55;;;;;;;;;;5066294;28;20021;-54
2024/01/10 06:57:12;;;;;;;9.80;8.43;;;;;;;;;;5065594;28;20135;-55
2024/01/10 06:59:38;;;;;;;11.52;8.98;;;;;;;;;;5071821;28;20020;-56
2024/01/10 07:02:05;;;;;;;9.68;8.43;;;;;;;;;;5070789;28;20035;-56
2024/01/10 07:04:32;;;;;;;10.68;7.85;;;;;;;;;;5076457;28;20025;-55
2024/01/10 07:06:58;;;;;;;11.10;8.05;;;;;;;;;;5065101;28;20039;-55
2024/01/10 07:09:25;;;;;;;12.27;8.27;;;;;;;;;;5080429;28;20012;-53
2024/01/10 07:11:52;;;;;;;11.02;7.53;;;;;;;;;;5079003;28;20062;-57
2024/01/10 07:14:19;;;;;;;11.15;7.85;;;;;;;;;;5071330;28;20426;-55
2024/01/10 07:16:47;;;;;;;8.75;7.55;;;;;;;;;;5064949;28;20192;-55
2024/01/10 07:19:14;;;;;;;10.07;8.10;;;;;;;;;;5080417;28;20020;-56
2024/01/10 07:21:41;;;;;;;10.05;7.70;;;;;;;;;;5084868;28;20069;-54
2024/01/10 07:24:11;;;;;;;9.23;7.43;;;;;;;;;;5084808;28;20016;-62
2024/01/10 07:26:38;;;;;;;9.05;7.40;;;;;;;;;;5066129;28;20304;-54
2024/01/10 07:29:08;;;;;;;8.02;7.15;;;;;;;;;;5064577;28;20064;-53
2024/01/10 07:31:35;;;;;;;9.73;8.00;;;;;;;;;;5064558;28;20312;-55
2024/01/10 07:34:04;;;;;;;9.55;7.20;;;;;;;;;;5064565;28;20089;-54
2024/01/10 07:36:33;;;;;;;9.95;7.68;;;;;;;;;;5064516;28;20016;-56
2024/01/10 07:39:00;;;;;;;10.80;7.25;;;;;;;;;;5073808;28;20304;-55
2024/01/10 07:41:27;;;;;;;7.70;6.90;;;;;;;;;;5072380;28;20338;-58
2024/01/10 07:43:54;;;;;;;8.50;7.07;;;;;;;;;;5084039;28;20099;-59
2024/01/10 07:46:22;;;;;;;9.48;7.22;;;;;;;;;;5084235;28;20022;-60
2024/01/10 07:48:49;;;;;;;9.02;7.20;;;;;;;;;;5084318;28;20073;-54
2024/01/10 07:51:15;;;;;;;11.02;7.03;;;;;;;;;;5081407;28;20052;-55
2024/01/10 07:53:42;;;;;;;8.82;6.95;;;;;;;;;;5064117;28;20021;-51
2024/01/10 07:56:09;;;;;;;7.43;6.70;;;;;;;;;;5064307;28;20048;-55
2024/01/10 07:58:35;;;;;;;9.60;7.13;;;;;;;;;;5064238;28;20029;-61
2024/01/10 08:01:02;;;;;;;10.80;7.28;;;;;;;;;;5079626;28;20063;-56
2024/01/10 08:03:29;;;;;;;9.23;7.03;;;;;;;;;;5063933;28;20037;-59
2024/01/10 08:05:56;;;;;;;8.40;7.03;;;;;;;;;;5064084;28;20299;-53
2024/01/10 08:08:22;;;;;;;8.70;6.80;;;;;;;;;;5064336;28;20079;-59
2024/01/10 08:10:49;;;;;;;8.68;7.03;;;;;;;;;;5063858;28;20024;-55
2024/01/10 08:13:15;;;;;;;8.82;6.28;;;;;;;;;;5064380;28;20021;-60
2024/01/10 08:15:42;;;;;;;9.13;6.85;;;;;;;;;;5064061;28;20193;-60
2024/01/10 08:18:12;;;;;;;9.70;7.38;;;;;;;;;;5064155;28;20032;-56
2024/01/10 08:20:39;;;;;;;9.90;6.53;;;;;;;;;;5064077;28;20166;-55
2024/01/10 08:23:06;;;;;;;8.43;6.50;;;;;;;;;;5081614;28;20028;-53
2024/01/10 08:25:32;;;;;;;10.02;6.60;;;;;;;;;;5083776;28;20023;-53
2024/01/10 08:27:59;;;;;;;7.30;6.53;;;;;;;;;;5084059;28;20033;-58
2024/01/10 08:30:25;;;;;;;7.82;6.63;;;;;;;;;;5083864;28;20020;-57
2024/01/10 08:32:52;;;;;;;9.60;6.70;;;;;;;;;;5084041;28;20032;-54
2024/01/10 08:35:19;;;;;;;6.60;5.90;;;;;;;;;;5083892;28;20020;-57
2024/01/10 08:37:46;;;;;;;8.32;6.47;;;;;;;;;;5083814;28;20040;-55
2024/01/10 08:40:15;;;;;;;7.28;5.95;;;;;;;;;;5083602;28;20189;-57
2024/01/10 08:42:42;;;;;;;7.32;6.57;;;;;;;;;;5083946;28;20028;-59
2024/01/10 08:45:11;;;;;;;8.07;6.57;;;;;;;;;;5083754;28;20354;-57
2024/01/10 08:47:38;;;;;;;9.27;6.22;;;;;;;;;;5083373;28;20043;-58
2024/01/10 08:50:05;;;;;;;7.88;6.53;;;;;;;;;;5083755;28;20021;-56
2024/01/10 08:52:37;;;;;;;8.55;6.70;;;;;;;;;;5083853;28;20040;-55
2024/01/10 08:55:05;;;;;;;7.65;6.63;;;;;;;;;;5082376;28;20384;-57
2024/01/10 08:57:32;;;;;;;7.60;6.57;;;;;;;;;;5083843;28;20037;-59
2024/01/10 08:59:58;;;;;;;7.75;6.28;;;;;;;;;;5083653;28;20197;-60
2024/01/10 09:02:27;;;;;;;11.90;6.60;;;;;;;;;;5083842;28;20095;-56
2024/01/10 09:04:54;;;;;;;9.90;6.70;;;;;;;;;;5083484;28;20021;-55
2024/01/10 09:07:21;;;;;;;7.72;6.80;;;;;;;;;;5083514;28;20086;-53
2024/01/10 09:09:47;;;;;;;9.40;7.15;;;;;;;;;;5084559;28;20384;-52
2024/01/10 09:12:14;;;;;;;7.32;6.55;;;;;;;;;;5087523;28;20028;-55
2024/01/10 09:14:41;;;;;;;10.10;6.53;;;;;;;;;;5087198;28;20012;-58
2024/01/10 09:17:07;;;;;;;8.90;6.65;;;;;;;;;;5087248;28;20028;-58
2024/01/10 09:19:34;;;;;;;8.05;6.40;;;;;;;;;;5087335;28;20361;-54
2024/01/10 09:22:01;;;;;;;11.68;6.35;;;;;;;;;;5087314;28;20208;-54
2024/01/10 09:24:27;;;;;;;7.30;6.60;;;;;;;;;;5087266;28;20020;-58
2024/01/10 09:26:54;;;;;;;8.73;6.57;;;;;;;;;;5087055;28;20058;-53
2024/01/10 09:29:21;;;;;;;8.23;6.60;;;;;;;;;;5087003;28;20021;-52
2024/01/10 09:31:47;;;;;;;7.70;5.97;;;;;;;;;;5086785;28;20027;-56
2024/01/10 09:34:14;;;;;;;8.15;6.22;;;;;;;;;;5086869;28;20027;-49
2024/01/10 09:36:41;;;;;;;9.45;6.30;;;;;;;;;;5086921;28;20043;-52
2024/01/10 09:39:13;;;;;;;8.40;6.93;;;;;;;;;;5086490;28;20356;-56
2024/01/10 09:41:46;;;;;;;7.32;6.10;;;;;;;;;;5086782;28;20409;-52
2024/01/10 09:44:13;;;;;;;9.57;6.25;;;;;;;;;;5086592;28;20074;-57
2024/01/10 09:46:39;;;;;;;10.07;6.20;;;;;;;;;;5086876;28;20036;-61
2024/01/10 09:49:06;;;;;;;9.98;6.00;;;;;;;;;;5086881;28;20185;-57
2024/01/10 09:51:34;;;;;;;8.10;5.82;;;;;;;;;;5086638;28;20020;-54
2024/01/10 09:54:03;;;;;;;9.55;6.28;;;;;;;;;;5086592;28;20033;-56
2024/01/10 09:56:30;;;;;;;7.05;6.20;;;;;;;;;;5086392;28;20084;-56
2024/01/10 09:58:59;;;;;;;8.88;6.22;;;;;;;;;;5086415;28;20076;-51
2024/01/10 10:01:26;;;;;;;8.63;6.90;;;;;;;;;;5086295;28;20312;-63
2024/01/10 10:03:54;;;;;;;9.93;7.13;;;;;;;;;;5086429;28;20087;-53
2024/01/10 10:06:21;;;;;;;14.75;7.15;;;;;;;;;;5086111;28;20025;-53
2024/01/10 10:08:47;;;;;;;12.13;7.63;;;;;;;;;;5086186;28;20020;-52
2024/01/10 10:11:14;;;;;;;12.35;6.97;;;;;;;;;;5086310;28;20032;-54
2024/01/10 10:13:41;;;;;;;13.35;7.18;;;;;;;;;;5076466;28;20036;-52
2024/01/10 10:16:12;;;;;;;12.63;7.00;;;;;;;;;;5084660;28;20020;-54
2024/01/10 10:18:44;;;;;;;12.02;7.00;;;;;;;;;;5077110;28;20051;-60
2024/01/10 10:21:12;;;;;;;11.23;6.65;;;;;;;;;;5079126;28;20048;-55
2024/01/10 10:23:40;;;;;;;10.57;6.35;;;;;;;;;;5085185;28;20024;-54
2024/01/10 10:26:20;;;;;;;9.75;6.45;;;;;;;;;;5079764;28;20024;-56
2024/01/10 10:28:47;;;;;;;9.05;6.07;;;;;;;;;;5068979;28;20039;-54
2024/01/10 10:31:14;;;;;;;9.68;6.50;;;;;;;;;;5065758;28;20023;-54
2024/01/10 10:33:41;;;;;;;9.82;6.18;;;;;;;;;;5079551;28;20131;-56
2024/01/10 10:36:08;;;;;;;10.43;6.28;;;;;;;;;;5069203;28;20059;-57
2024/01/10 10:38:36;;;;;;;9.02;7.20;;;;;;;;;;5065795;28;20045;-53
2024/01/10 10:41:07;;;;;;;17.88;7.95;;;;;;;;;;5065475;28;20028;-52
2024/01/10 10:43:36;;;;;;;15.70;8.80;;;;;;;;;;5066033;28;20092;-54
2024/01/10 10:46:03;;;;;;;20.23;9.80;;;;;;;;;;5065537;28;20071;-55
2024/01/10 10:48:32;;;;;;;15.20;9.80;;;;;;;;;;5083792;28;20020;-56
2024/01/10 10:51:11;;;;;;;15.65;9.82;;;;;;;;;;5085605;28;20020;-54
2024/01/10 10:53:40;;;;;;;18.80;10.63;;;;;;;;;;5085891;28;20028;-55
2024/01/10 10:56:07;;;;;;;22.75;10.27;;;;;;;;;;5085381;28;20214;-59
2024/01/10 10:58:37;;;;;;;21.52;10.20;;;;;;;;;;5085708;28;20210;-54
2024/01/10 11:01:08;;;;;;;18.48;10.38;;;;;;;;;;5085189;28;20024;-55
2024/01/10 11:03:36;;;;;;;21.65;9.63;;;;;;;;;;5085483;28;20039;-55
2024/01/10 11:06:03;;;;;;;20.98;8.77;;;;;;;;;;5085130;28;20084;-54
2024/01/10 11:08:31;;;;;;;25.40;9.25;;;;;;;;;;5080440;28;20073;-53
2024/01/10 11:10:58;;;;;;;22.52;8.13;;;;;;;;;;5072158;28;20422;-59
2024/01/10 11:13:29;;;;;;;22.70;8.60;;;;;;;;;;5065493;28;20033;-53
2024/01/10 11:16:08;;;;;;;25.65;11.23;;;;;;;;;;5084118;28;20021;-57
2024/01/10 11:18:55;;;;;;;36.95;27.23;;;;;;;;;;5085335;28;20150;-57
2024/01/10 11:21:37;;;;;;;78.22;65.65;;;;;;;;;;5080288;28;20061;-54
2024/01/10 11:24:05;;;;;;;69.25;57.28;;;;;;;;;;5064972;28;20336;-49
2024/01/10 11:26:33;;;;;;;47.15;42.03;;;;;;;;;;5064621;28;20024;-55
2024/01/10 11:29:00;;;;;;;28.08;13.00;;;;;;;;;;5064586;28;20028;-59
2024/01/10 11:31:30;;;;;;;27.35;17.70;;;;;;;;;;5064614;28;20312;-60
2024/01/10 11:33:57;;;;;;;31.60;18.27;;;;;;;;;;5063193;28;20017;-60
2024/01/10 11:36:27;;;;;;;20.90;13.50;;;;;;;;;;5084438;28;20070;-62
2024/01/10 11:38:54;;;;;;;39.22;14.88;;;;;;;;;;5084399;28;20040;-60
2024/01/10 11:41:21;;;;;;;28.83;11.57;;;;;;;;;;5084712;28;20209;-59
2024/01/10 11:44:08;;;;;;;23.98;10.40;;;;;;;;;;5084644;28;20028;-59
2024/01/10 11:46:35;;;;;;;22.17;9.80;;;;;;;;;;5067188;28;20726;-56
2024/01/10 11:49:01;;;;;;;20.88;9.15;;;;;;;;;;5084190;28;20024;-60
2024/01/10 11:51:28;;;;;;;21.95;8.63;;;;;;;;;;5084235;28;20012;-60
2024/01/10 11:53:56;;;;;;;17.73;8.00;;;;;;;;;;5084183;28;20012;-61
2024/01/10 11:56:23;;;;;;;18.20;8.40;;;;;;;;;;5084189;28;20076;-62
2024/01/10 11:58:56;;;;;;;25.45;8.60;;;;;;;;;;5082252;28;20031;-60
2024/01/10 12:01:23;;;;;;;23.27;7.53;;;;;;;;;;5074270;28;20131;-59
2024/01/10 12:03:53;;;;;;;23.75;8.43;;;;;;;;;;5084079;28;20035;-62
2024/01/10 12:06:20;;;;;;;28.63;7.97;;;;;;;;;;5083827;28;20185;-60
2024/01/10 12:08:47;;;;;;;35.35;9.45;;;;;;;;;;5067201;28;20021;-59
2024/01/10 12:11:13;;;;;;;28.42;8.35;;;;;;;;;;5064110;28;20017;-59
2024/01/10 12:13:40;;;;;;;28.35;7.82;;;;;;;;;;5074462;28;20024;-60
2024/01/10 12:16:07;;;;;;;24.30;7.95;;;;;;;;;;5084159;28;20016;-60
2024/01/10 12:18:33;;;;;;;18.58;6.90;;;;;;;;;;5084464;28;20185;-61
2024/01/10 12:21:00;;;;;;;15.13;6.78;;;;;;;;;;5083844;28;20016;-60
2024/01/10 12:23:31;;;;;;;23.05;7.38;;;;;;;;;;5084235;28;20083;-61
2024/01/10 12:25:58;;;;;;;19.10;6.95;;;;;;;;;;5083742;28;20288;-58
2024/01/10 12:28:25;;;;;;;17.27;6.78;;;;;;;;;;5083962;28;20046;-60
2024/01/10 12:30:52;;;;;;;18.48;6.95;;;;;;;;;;5083572;28;20032;-63
2024/01/10 12:33:23;;;;;;;19.17;6.90;;;;;;;;;;5084220;28;20051;-59
2024/01/10 12:36:09;;;;;;;15.93;6.65;;;;;;;;;;5083702;28;20015;-62
2024/01/10 12:38:36;;;;;;;10.40;6.07;;;;;;;;;;5083710;28;20063;-63
2024/01/10 12:41:04;;;;;;;12.40;5.97;;;;;;;;;;5083752;28;20316;-59
2024/01/10 12:43:31;;;;;;;17.23;6.18;;;;;;;;;;5084702;28;20034;-63
2024/01/10 12:46:04;;;;;;;13.32;7.13;;;;;;;;;;5086618;28;20024;-61
2024/01/10 12:48:31;;;;;;;10.73;6.72;;;;;;;;;;5080628;28;20069;-59
2024/01/10 12:51:00;;;;;;;14.95;7.50;;;;;;;;;;5080229;28;20017;-58
2024/01/10 12:53:29;;;;;;;11.18;6.65;;;;;;;;;;5073582;28;20201;-62
2024/01/10 12:55:56;;;;;;;13.85;7.47;;;;;;;;;;5087604;28;20020;-62
2024/01/10 12:58:22;;;;;;;18.38;7.15;;;;;;;;;;5088137;28;20024;-62
2024/01/10 13:00:49;;;;;;;14.60;7.22;;;;;;;;;;5077180;28;20268;-64
2024/01/10 13:03:16;;;;;;;16.58;6.68;;;;;;;;;;5067742;28;20117;-63
2024/01/10 13:05:44;;;;;;;20.00;7.65;;;;;;;;;;5074373;28;20207;-63
2024/01/10 13:08:11;;;;;;;16.17;7.10;;;;;;;;;;5080049;28;20335;-63
2024/01/10 13:10:39;;;;;;;15.00;6.40;;;;;;;;;;5068005;28;20217;-61
2024/01/10 13:13:05;;;;;;;11.70;6.43;;;;;;;;;;5084904;28;20021;-59
2024/01/10 13:15:32;;;;;;;20.75;6.75;;;;;;;;;;5079294;28;20019;-59
2024/01/10 13:17:59;;;;;;;16.30;6.55;;;;;;;;;;5087398;28;20078;-59
2024/01/10 13:20:25;;;;;;;16.38;6.97;;;;;;;;;;5080261;28;20356;-62
2024/01/10 13:22:52;;;;;;;17.98;7.30;;;;;;;;;;5067487;28;20220;-62
2024/01/10 13:25:22;;;;;;;16.27;7.00;;;;;;;;;;5073198;28;20044;-61
2024/01/10 13:27:52;;;;;;;20.52;6.85;;;;;;;;;;5087144;28;20036;-61
2024/01/10 13:30:19;;;;;;;15.65;6.78;;;;;;;;;;5086967;28;20017;-61
2024/01/10 13:32:49;;;;;;;15.38;6.53;;;;;;;;;;5086852;28;20228;-58
2024/01/10 13:35:19;;;;;;;12.73;6.68;;;;;;;;;;5086858;28;20086;-63
2024/01/10 13:37:46;;;;;;;18.38;6.90;;;;;;;;;;5076362;28;20370;-61
2024/01/10 13:40:13;;;;;;;16.25;6.75;;;;;;;;;;5070904;28;20138;-62
2024/01/10 13:42:45;;;;;;;16.23;6.35;;;;;;;;;;5078685;28;20027;-59
2024/01/10 13:45:12;;;;;;;11.65;6.43;;;;;;;;;;5086994;28;20047;-61
2024/01/10 13:47:39;;;;;;;12.40;6.30;;;;;;;;;;5086759;28;20054;-61
2024/01/10 13:50:06;;;;;;;13.60;6.60;;;;;;;;;;5084220;28;20338;-60
2024/01/10 13:52:36;;;;;;;8.32;5.78;;;;;;;;;;5086527;28;20024;-60
2024/01/10 13:55:06;;;;;;;11.43;6.68;;;;;;;;;;5085832;28;20021;-61
2024/01/10 13:57:33;;;;;;;8.02;6.20;;;;;;;;;;5084359;28;20028;-63
2024/01/10 14:00:00;;;;;;;9.90;6.72;;;;;;;;;;5089372;28;20016;-60
2024/01/10 14:02:27;;;;;;;9.27;6.10;;;;;;;;;;5106794;28;20208;-60
2024/01/10 14:04:57;;;;;;;10.57;5.93;;;;;;;;;;5092219;28;20021;-59
2024/01/10 14:07:24;;;;;;;8.52;6.30;;;;;;;;;;5086440;28;20043;-59
2024/01/10 14:09:54;;;;;;;8.85;6.40;;;;;;;;;;5084429;28;20008;-60
2024/01/10 14:12:22;;;;;;;8.38;6.18;;;;;;;;;;5085960;28;20032;-61
2024/01/10 14:14:48;;;;;;;12.40;6.60;;;;;;;;;;5085728;28;20021;-61
2024/01/10 14:17:15;;;;;;;13.18;6.90;;;;;;;;;;5086067;28;20028;-58
2024/01/10 14:19:43;;;;;;;10.70;7.10;;;;;;;;;;5085563;28;20020;-59
2024/01/10 14:22:10;;;;;;;11.02;6.78;;;;;;;;;;5080567;28;20024;-60
2024/01/10 14:24:38;;;;;;;9.18;6.57;;;;;;;;;;5079177;28;20024;-61
2024/01/10 14:27:05;;;;;;;11.18;7.15;;;;;;;;;;5089569;28;20032;-60
2024/01/10 14:29:33;;;;;;;12.50;6.30;;;;;;;;;;5075089;28;20028;-61
2024/01/10 14:31:59;;;;;;;9.60;6.00;;;;;;;;;;5080754;28;20030;-62